Rechercher aéroport 
image banner adimage banner ad
image banner ad

FYGO - Gobabeb

Situé à , Namibia

ICAO - , IATA -

Données fournies par Airmate  

Information générale

Coordonnées: S23°33'44" E15°2'27"
Élévation : feet MSL.
 
Voir autres Aéroports à Khomae

Données opérationnelles

Accessible au public
Heure actuelle UTC:
Heure actuelle locale:
Météo à : FYWB - Walvis Bay ( 76 km )
METAR: FYWB 170600Z AUTO 27001KT //// // ////// 18/15 Q1013
TAF: TAF FYWB 170400Z 1706/1806 00000KT 5000 BR OVC008 BECMG 1707/1708 36005KT 9999 BKN013 BECMG 1710/1712 27010KT CAVOK
Voir NOTAMs / SUP AIP / TFR affectant cet aéroport [VIEW]
Fréquences de communication: [VIEW]

Pistes:

Coordonnées de l'aéroport

Adresse: Namibia

Vue satellite de FYGO